N1261P -KSAN
Flight info
| Callsign | N1261P |
|---|---|
| Flight time | N/A |
| Altitude | VFR |
| Route | |
| Aircraft | PISI/L-VGD/C |
Departure
| Time | N/A |
|---|---|
| Airport | - |
Arrival
| Time | 2026-05-04 23:26 |
|---|---|
| Airport | San Diego International Airport (KSAN) |
| Time | Latitude | Longitude | Altitude | Speed | Heading |
|---|---|---|---|---|---|
| 2026-05-04 23:26 | 32.73320 | -117.17770 | 18 ft | 0 kts | 174° |
| 2026-05-04 23:28 | 32.73314 | -117.17781 | 17 ft | 6 kts | 251° |
| 2026-05-04 23:28 | 32.73314 | -117.17832 | 18 ft | 10 kts | 270° |
| 2026-05-04 23:28 | 32.73324 | -117.17897 | 19 ft | 6 kts | 296° |
| 2026-05-04 23:29 | 32.73329 | -117.17908 | 19 ft | 3 kts | 300° |
| 2026-05-04 23:29 | 32.73295 | -117.17949 | 19 ft | 9 kts | 237° |
| 2026-05-04 23:29 | 32.73236 | -117.17965 | 17 ft | 14 kts | 141° |
| 2026-05-04 23:29 | 32.73195 | -117.17828 | 18 ft | 22 kts | 105° |
| 2026-05-04 23:30 | 32.73146 | -117.17657 | 17 ft | 12 kts | 103° |
| 2026-05-04 23:30 | 32.73147 | -117.17636 | 17 ft | 0 kts | 72° |
| 2026-05-04 23:30 | 32.73141 | -117.17615 | 17 ft | 9 kts | 113° |
| 2026-05-04 23:30 | 32.73090 | -117.17550 | 17 ft | 0 kts | 142° |
| 2026-05-04 23:31 | 32.73063 | -117.17533 | 17 ft | 21 kts | 159° |
| 2026-05-04 23:31 | 32.73018 | -117.17601 | 17 ft | 32 kts | 289° |
| 2026-05-04 23:31 | 32.73155 | -117.18064 | 167 ft | 72 kts | 281° |
| 2026-05-04 23:31 | 32.73318 | -117.18657 | 466 ft | 79 kts | 281° |
| 2026-05-04 23:32 | 32.73473 | -117.19314 | 786 ft | 84 kts | 279° |
| 2026-05-04 23:32 | 32.73242 | -117.19920 | 1112 ft | 82 kts | 297° |
| 2026-05-04 23:32 | 32.73853 | -117.19755 | 1203 ft | 103 kts | 51° |
| 2026-05-04 23:32 | 32.74268 | -117.19071 | 1145 ft | 102 kts | 51° |
| 2026-05-04 23:33 | 32.74724 | -117.18493 | 1028 ft | 91 kts | 60° |
| 2026-05-04 23:33 | 32.74548 | -117.17804 | 824 ft | 103 kts | 135° |
| 2026-05-04 23:33 | 32.74096 | -117.17145 | 622 ft | 97 kts | 142° |
| 2026-05-04 23:33 | 32.73617 | -117.16828 | 484 ft | 70 kts | 186° |
| 2026-05-04 23:34 | 32.73218 | -117.17027 | 298 ft | 55 kts | 229° |
| 2026-05-04 23:34 | 32.73018 | -117.17480 | 138 ft | 72 kts | 263° |
| 2026-05-04 23:34 | 32.73124 | -117.17991 | 18 ft | 58 kts | 281° |
| 2026-05-04 23:34 | 32.73202 | -117.18322 | 18 ft | 27 kts | 278° |
| 2026-05-04 23:35 | 32.73319 | -117.18730 | 174 ft | 65 kts | 282° |
| 2026-05-04 23:35 | 32.73443 | -117.19157 | 662 ft | 58 kts | 287° |
| 2026-05-04 23:35 | 32.73646 | -117.19607 | 926 ft | 84 kts | 339° |
| 2026-05-04 23:35 | 32.74200 | -117.19190 | 990 ft | 93 kts | 45° |
| 2026-05-04 23:36 | 32.74702 | -117.18704 | 970 ft | 93 kts | 43° |
| 2026-05-04 23:36 | 32.74854 | -117.17992 | 931 ft | 97 kts | 112° |
| 2026-05-04 23:36 | 32.74530 | -117.17250 | 759 ft | 102 kts | 123° |
| 2026-05-04 23:36 | 32.74113 | -117.16752 | 567 ft | 73 kts | 199° |
| 2026-05-04 23:37 | 32.73582 | -117.17020 | 350 ft | 95 kts | 218° |
| 2026-05-04 23:37 | 32.73164 | -117.17408 | 172 ft | 62 kts | 249° |
| 2026-05-04 23:37 | 32.73116 | -117.17862 | 64 ft | 51 kts | 270° |
| 2026-05-04 23:37 | 32.73190 | -117.18247 | 20 ft | 42 kts | 281° |
| 2026-05-04 23:38 | 32.73251 | -117.18521 | 21 ft | 29 kts | 281° |
| 2026-05-04 23:38 | 32.73353 | -117.18873 | 114 ft | 63 kts | 290° |
| 2026-05-04 23:38 | 32.73470 | -117.19377 | 543 ft | 58 kts | 282° |
| 2026-05-04 23:38 | 32.73584 | -117.19863 | 889 ft | 67 kts | 297° |
| 2026-05-04 23:39 | 32.74195 | -117.19804 | 987 ft | 111 kts | 24° |
| 2026-05-04 23:39 | 32.74742 | -117.19166 | 1150 ft | 113 kts | 83° |
| 2026-05-04 23:39 | 32.74490 | -117.18334 | 1165 ft | 102 kts | 121° |
| 2026-05-04 23:39 | 32.74160 | -117.17640 | 1112 ft | 95 kts | 124° |
| 2026-05-04 23:40 | 32.73845 | -117.16940 | 949 ft | 97 kts | 127° |
| 2026-05-04 23:40 | 32.73441 | -117.16327 | 853 ft | 95 kts | 136° |
| 2026-05-04 23:40 | 32.73142 | -117.15654 | 785 ft | 89 kts | 121° |
| 2026-05-04 23:40 | 32.72868 | -117.14998 | 672 ft | 90 kts | 127° |
| 2026-05-04 23:41 | 32.72524 | -117.14407 | 612 ft | 88 kts | 135° |
| 2026-05-04 23:41 | 32.72095 | -117.14112 | 487 ft | 70 kts | 205° |
| 2026-05-04 23:41 | 32.71920 | -117.14525 | 522 ft | 85 kts | 296° |
| 2026-05-04 23:41 | 32.72280 | -117.15212 | 490 ft | 104 kts | 296° |
| 2026-05-04 23:42 | 32.72633 | -117.15906 | 435 ft | 89 kts | 288° |
| 2026-05-04 23:42 | 32.72837 | -117.16578 | 421 ft | 83 kts | 286° |
| 2026-05-04 23:42 | 32.72963 | -117.17226 | 238 ft | 75 kts | 278° |
| 2026-05-04 23:42 | 32.73063 | -117.17751 | 69 ft | 62 kts | 278° |
| 2026-05-04 23:43 | 32.73173 | -117.18183 | 19 ft | 43 kts | 278° |
| 2026-05-04 23:43 | 32.73245 | -117.18523 | 31 ft | 62 kts | 282° |
| 2026-05-04 23:43 | 32.73422 | -117.19069 | 301 ft | 77 kts | 284° |
| 2026-05-04 23:43 | 32.73530 | -117.19600 | 817 ft | 63 kts | 282° |
| 2026-05-04 23:44 | 32.73962 | -117.19836 | 1032 ft | 100 kts | 14° |
| 2026-05-04 23:44 | 32.74538 | -117.19380 | 1037 ft | 91 kts | 33° |
| 2026-05-04 23:44 | 32.74982 | -117.18871 | 1023 ft | 93 kts | 64° |
| 2026-05-04 23:44 | 32.74850 | -117.18102 | 890 ft | 95 kts | 125° |
| 2026-05-04 23:45 | 32.74997 | -117.17431 | 936 ft | 91 kts | 25° |
| 2026-05-04 23:45 | 32.75322 | -117.17754 | 905 ft | 81 kts | 254° |
| 2026-05-04 23:45 | 32.74843 | -117.17972 | 759 ft | 88 kts | 172° |
| 2026-05-04 23:45 | 32.74366 | -117.17475 | 803 ft | 100 kts | 137° |
| 2026-05-04 23:46 | 32.73921 | -117.16886 | 742 ft | 89 kts | 147° |
| 2026-05-04 23:46 | 32.73453 | -117.16478 | 792 ft | 84 kts | 150° |
| 2026-05-04 23:46 | 32.72986 | -117.16001 | 797 ft | 94 kts | 148° |
| 2026-05-04 23:46 | 32.72423 | -117.15662 | 677 ft | 87 kts | 194° |
| 2026-05-04 23:47 | 32.72409 | -117.16197 | 712 ft | 89 kts | 309° |
| 2026-05-04 23:47 | 32.72749 | -117.16660 | 531 ft | 74 kts | 295° |
| 2026-05-04 23:47 | 32.72950 | -117.17221 | 311 ft | 70 kts | 280° |
| 2026-05-04 23:47 | 32.73057 | -117.17723 | 65 ft | 61 kts | 279° |
| 2026-05-04 23:48 | 32.73157 | -117.18144 | 17 ft | 25 kts | 281° |
| 2026-05-04 23:48 | 32.73204 | -117.18366 | 20 ft | 57 kts | 291° |
| 2026-05-04 23:48 | 32.73372 | -117.18894 | 316 ft | 72 kts | 289° |
| 2026-05-04 23:48 | 32.73523 | -117.19431 | 797 ft | 65 kts | 288° |
| 2026-05-04 23:49 | 32.74070 | -117.19411 | 996 ft | 102 kts | 19° |
| 2026-05-04 23:49 | 32.74625 | -117.18969 | 1075 ft | 94 kts | 53° |
| 2026-05-04 23:49 | 32.74533 | -117.18250 | 986 ft | 104 kts | 131° |
| 2026-05-04 23:49 | 32.74000 | -117.17552 | 862 ft | 88 kts | 144° |
| 2026-05-04 23:50 | 32.73503 | -117.17131 | 648 ft | 90 kts | 182° |
| 2026-05-04 23:50 | 32.73032 | -117.17449 | 228 ft | 88 kts | 263° |
| 2026-05-04 23:50 | 32.73154 | -117.18114 | 17 ft | 70 kts | 282° |
| 2026-05-04 23:50 | 32.73265 | -117.18607 | 101 ft | 70 kts | 287° |
| 2026-05-04 23:51 | 32.73435 | -117.19232 | 461 ft | 71 kts | 283° |
| 2026-05-04 23:51 | 32.73749 | -117.19601 | 787 ft | 96 kts | 357° |
| 2026-05-04 23:51 | 32.74411 | -117.19392 | 1093 ft | 96 kts | 14° |
| 2026-05-04 23:51 | 32.74888 | -117.19006 | 1096 ft | 84 kts | 79° |
| 2026-05-04 23:52 | 32.74653 | -117.18259 | 838 ft | 106 kts | 128° |
| 2026-05-04 23:52 | 32.74236 | -117.17551 | 723 ft | 100 kts | 136° |
| 2026-05-04 23:52 | 32.73741 | -117.17131 | 610 ft | 78 kts | 181° |
| 2026-05-04 23:52 | 32.73208 | -117.17204 | 325 ft | 76 kts | 218° |
| 2026-05-04 23:53 | 32.73056 | -117.17706 | 47 ft | 68 kts | 279° |
| 2026-05-04 23:53 | 32.73170 | -117.18154 | 18 ft | 38 kts | 279° |
| 2026-05-04 23:53 | 32.73222 | -117.18416 | 41 ft | 55 kts | 282° |
| 2026-05-04 23:53 | 32.73379 | -117.18917 | 412 ft | 61 kts | 287° |
| 2026-05-04 23:54 | 32.73639 | -117.19376 | 668 ft | 92 kts | 341° |
| 2026-05-04 23:54 | 32.74258 | -117.19044 | 919 ft | 97 kts | 28° |
| 2026-05-04 23:54 | 32.74674 | -117.18444 | 1186 ft | 104 kts | 90° |
| 2026-05-04 23:54 | 32.74341 | -117.17768 | 1205 ft | 93 kts | 131° |
| 2026-05-04 23:55 | 32.73907 | -117.17308 | 1182 ft | 84 kts | 147° |
| 2026-05-04 23:55 | 32.73420 | -117.16834 | 915 ft | 91 kts | 152° |
| 2026-05-04 23:55 | 32.73006 | -117.17472 | 209 ft | 73 kts | 275° |
| 2026-05-04 23:56 | 32.73125 | -117.18002 | 17 ft | 59 kts | 281° |
| 2026-05-04 23:56 | 32.73198 | -117.18327 | 20 ft | 37 kts | 287° |
| 2026-05-04 23:56 | 32.73335 | -117.18824 | 193 ft | 69 kts | 285° |
| 2026-05-04 23:56 | 32.73600 | -117.19281 | 642 ft | 77 kts | 313° |
| 2026-05-04 23:57 | 32.73861 | -117.19738 | 986 ft | 90 kts | 11° |
| 2026-05-04 23:57 | 32.74429 | -117.19215 | 1080 ft | 112 kts | 66° |
| 2026-05-04 23:57 | 32.74221 | -117.18480 | 1268 ft | 62 kts | 130° |
| 2026-05-04 23:57 | 32.73989 | -117.18163 | 1212 ft | 47 kts | 146° |
| 2026-05-04 23:58 | 32.73624 | -117.17709 | 851 ft | 81 kts | 141° |
| 2026-05-04 23:58 | 32.73238 | -117.17562 | 386 ft | 58 kts | 242° |
| 2026-05-04 23:58 | 32.73174 | -117.18116 | 34 ft | 68 kts | 278° |
| 2026-05-04 23:58 | 32.73275 | -117.18527 | 20 ft | 39 kts | 269° |
| 2026-05-04 23:59 | 32.73318 | -117.18797 | 19 ft | 49 kts | 294° |
| 2026-05-04 23:59 | 32.73467 | -117.19252 | 377 ft | 58 kts | 284° |
| 2026-05-04 23:59 | 32.73643 | -117.19763 | 714 ft | 76 kts | 293° |
| 2026-05-04 23:59 | 32.74195 | -117.19849 | 1038 ft | 94 kts | 11° |
| 2026-05-05 00:00 | 32.74751 | -117.19517 | 1012 ft | 92 kts | 61° |
| 2026-05-05 00:00 | 32.74795 | -117.19281 | 999 ft | 91 kts | 92° |
| 2026-05-05 00:00 | 32.74412 | -117.18071 | 745 ft | 95 kts | 122° |
| 2026-05-05 00:00 | 32.74008 | -117.17525 | 818 ft | 77 kts | 143° |
| 2026-05-05 00:01 | 32.73579 | -117.17232 | 1054 ft | 70 kts | 179° |
| 2026-05-05 00:01 | 32.73194 | -117.17447 | 440 ft | 70 kts | 240° |
| 2026-05-05 00:01 | 32.73145 | -117.17997 | 97 ft | 66 kts | 271° |
| 2026-05-05 00:01 | 32.73231 | -117.18444 | 19 ft | 44 kts | 277° |
| 2026-05-05 00:02 | 32.73301 | -117.18736 | 45 ft | 57 kts | 282° |
| 2026-05-05 00:02 | 32.73459 | -117.19237 | 372 ft | 64 kts | 286° |
| 2026-05-05 00:02 | 32.73746 | -117.19624 | 764 ft | 90 kts | 334° |
| 2026-05-05 00:02 | 32.74376 | -117.19372 | 1038 ft | 102 kts | 30° |
| 2026-05-05 00:03 | 32.74520 | -117.18668 | 1091 ft | 91 kts | 122° |
| 2026-05-05 00:03 | 32.74174 | -117.18033 | 911 ft | 89 kts | 130° |
| 2026-05-05 00:03 | 32.73705 | -117.17566 | 667 ft | 91 kts | 165° |
| 2026-05-05 00:03 | 32.73177 | -117.17670 | 232 ft | 83 kts | 245° |
| 2026-05-05 00:04 | 32.73184 | -117.18239 | 20 ft | 53 kts | 282° |
| 2026-05-05 00:04 | 32.73268 | -117.18609 | 22 ft | 71 kts | 283° |
| 2026-05-05 00:04 | 32.73448 | -117.19152 | 548 ft | 57 kts | 290° |
| 2026-05-05 00:04 | 32.73741 | -117.19618 | 839 ft | 76 kts | 321° |
| 2026-05-05 00:05 | 32.74339 | -117.19335 | 926 ft | 114 kts | 50° |
| 2026-05-05 00:05 | 32.74231 | -117.18647 | 949 ft | 82 kts | 171° |
| 2026-05-05 00:05 | 32.73699 | -117.18721 | 240 ft | 82 kts | 218° |
| 2026-05-05 00:05 | 32.73430 | -117.19137 | 32 ft | 56 kts | 272° |
| 2026-05-05 00:06 | 32.73481 | -117.19477 | 21 ft | 32 kts | 285° |
| 2026-05-05 00:06 | 32.73619 | -117.19917 | 141 ft | 73 kts | 287° |
| 2026-05-05 00:06 | 32.73834 | -117.20453 | 582 ft | 68 kts | 295° |
| 2026-05-05 00:06 | 32.74177 | -117.20921 | 912 ft | 79 kts | 298° |
| 2026-05-05 00:07 | 32.74359 | -117.21599 | 1055 ft | 94 kts | 283° |
| 2026-05-05 00:07 | 32.74592 | -117.22319 | 1292 ft | 95 kts | 288° |
| 2026-05-05 00:07 | 32.74977 | -117.22850 | 1232 ft | 100 kts | 3° |
| 2026-05-05 00:07 | 32.75670 | -117.22549 | 1015 ft | 105 kts | 20° |
| 2026-05-05 00:08 | 32.76275 | -117.22104 | 884 ft | 109 kts | 56° |
| 2026-05-05 00:08 | 32.76209 | -117.21254 | 756 ft | 104 kts | 112° |
| 2026-05-05 00:08 | 32.75901 | -117.20492 | 694 ft | 113 kts | 122° |
| 2026-05-05 00:08 | 32.75425 | -117.19611 | 838 ft | 130 kts | 125° |
| 2026-05-05 00:09 | 32.75007 | -117.18715 | 1096 ft | 116 kts | 120° |
| 2026-05-05 00:09 | 32.74631 | -117.17961 | 1082 ft | 101 kts | 126° |
| 2026-05-05 00:09 | 32.74482 | -117.17206 | 1030 ft | 96 kts | 50° |
| 2026-05-05 00:09 | 32.75018 | -117.17073 | 1038 ft | 83 kts | 314° |
| 2026-05-05 00:10 | 32.74934 | -117.17718 | 937 ft | 92 kts | 219° |
| 2026-05-05 00:10 | 32.74310 | -117.17697 | 974 ft | 97 kts | 149° |
| 2026-05-05 00:10 | 32.73891 | -117.17033 | 907 ft | 104 kts | 124° |
| 2026-05-05 00:10 | 32.73483 | -117.16321 | 949 ft | 98 kts | 134° |
| 2026-05-05 00:11 | 32.72999 | -117.15699 | 835 ft | 105 kts | 143° |
| 2026-05-05 00:11 | 32.72459 | -117.15677 | 701 ft | 77 kts | 244° |
| 2026-05-05 00:11 | 32.72673 | -117.16286 | 392 ft | 85 kts | 291° |
| 2026-05-05 00:11 | 32.72910 | -117.17009 | 181 ft | 104 kts | 279° |
| 2026-05-05 00:12 | 32.73064 | -117.17773 | 45 ft | 88 kts | 282° |
| 2026-05-05 00:12 | 32.73214 | -117.18368 | 23 ft | 64 kts | 284° |
| 2026-05-05 00:12 | 32.73323 | -117.18811 | 26 ft | 75 kts | 282° |
| 2026-05-05 00:12 | 32.73501 | -117.19498 | 444 ft | 45 kts | 281° |
| 2026-05-05 00:13 | 32.73743 | -117.19992 | 726 ft | 106 kts | 349° |
| 2026-05-05 00:13 | 32.74466 | -117.19851 | 798 ft | 97 kts | 16° |
| 2026-05-05 00:13 | 32.75019 | -117.19459 | 887 ft | 98 kts | 40° |
| 2026-05-05 00:13 | 32.75020 | -117.18627 | 929 ft | 105 kts | 124° |
| 2026-05-05 00:14 | 32.74553 | -117.17905 | 811 ft | 115 kts | 131° |
| 2026-05-05 00:14 | 32.74055 | -117.17237 | 734 ft | 97 kts | 144° |
| 2026-05-05 00:14 | 32.73473 | -117.16975 | 526 ft | 94 kts | 204° |
| 2026-05-05 00:14 | 32.73070 | -117.17552 | 127 ft | 96 kts | 275° |
| 2026-05-05 00:15 | 32.73192 | -117.18258 | 28 ft | 79 kts | 282° |
| 2026-05-05 00:15 | 32.73291 | -117.18641 | 23 ft | 67 kts | 284° |
| 2026-05-05 00:15 | 32.73386 | -117.19092 | 21 ft | 60 kts | 280° |
| 2026-05-05 00:15 | 32.73555 | -117.19718 | 341 ft | 75 kts | 283° |
| 2026-05-05 00:16 | 32.73792 | -117.20295 | 757 ft | 90 kts | 310° |
| 2026-05-05 00:16 | 32.74493 | -117.20322 | 988 ft | 118 kts | 10° |
| 2026-05-05 00:16 | 32.75138 | -117.19840 | 1124 ft | 107 kts | 74° |
| 2026-05-05 00:16 | 32.74995 | -117.18975 | 996 ft | 107 kts | 118° |
| 2026-05-05 00:17 | 32.74633 | -117.18217 | 858 ft | 104 kts | 128° |
| 2026-05-05 00:17 | 32.74120 | -117.17580 | 597 ft | 110 kts | 144° |
| 2026-05-05 00:17 | 32.73500 | -117.17261 | 395 ft | 95 kts | 186° |
| 2026-05-05 00:17 | 32.73085 | -117.17706 | 90 ft | 87 kts | 281° |
| 2026-05-05 00:18 | 32.73215 | -117.18357 | 22 ft | 72 kts | 284° |
| 2026-05-05 00:18 | 32.73337 | -117.18851 | 36 ft | 75 kts | 285° |
| 2026-05-05 00:18 | 32.73538 | -117.19479 | 386 ft | 83 kts | 289° |
| 2026-05-05 00:18 | 32.73733 | -117.20146 | 657 ft | 86 kts | 287° |
| 2026-05-05 00:19 | 32.74216 | -117.20516 | 962 ft | 112 kts | 5° |
| 2026-05-05 00:19 | 32.74914 | -117.20054 | 1221 ft | 121 kts | 55° |
| 2026-05-05 00:19 | 32.74619 | -117.19158 | 1236 ft | 136 kts | 132° |
| 2026-05-05 00:19 | 32.74070 | -117.18417 | 939 ft | 93 kts | 136° |
| 2026-05-05 00:20 | 32.73603 | -117.17886 | 431 ft | 87 kts | 147° |
| 2026-05-05 00:20 | 32.73142 | -117.17964 | 70 ft | 86 kts | 272° |
| 2026-05-05 00:20 | 32.73259 | -117.18538 | 20 ft | 49 kts | 283° |
| 2026-05-05 00:20 | 32.73401 | -117.19041 | 145 ft | 73 kts | 289° |
| 2026-05-05 00:21 | 32.73584 | -117.19555 | 639 ft | 73 kts | 289° |
| 2026-05-05 00:21 | 32.74001 | -117.19996 | 780 ft | 112 kts | 359° |
| 2026-05-05 00:21 | 32.74702 | -117.19507 | 1022 ft | 126 kts | 37° |
| 2026-05-05 00:21 | 32.75387 | -117.18819 | 1222 ft | 131 kts | 51° |
| 2026-05-05 00:22 | 32.75364 | -117.17899 | 1270 ft | 108 kts | 122° |
| 2026-05-05 00:22 | 32.75011 | -117.17192 | 1096 ft | 99 kts | 107° |
| 2026-05-05 00:22 | 32.75347 | -117.16605 | 995 ft | 93 kts | 352° |
| 2026-05-05 00:22 | 32.75536 | -117.17187 | 1016 ft | 96 kts | 237° |
| 2026-05-05 00:23 | 32.74828 | -117.17328 | 1012 ft | 120 kts | 166° |
| 2026-05-05 00:23 | 32.74159 | -117.16738 | 997 ft | 126 kts | 136° |
| 2026-05-05 00:23 | 32.73662 | -117.15886 | 945 ft | 130 kts | 123° |
| 2026-05-05 00:23 | 32.73225 | -117.15041 | 964 ft | 121 kts | 127° |
| 2026-05-05 00:24 | 32.72739 | -117.14254 | 1107 ft | 109 kts | 135° |
| 2026-05-05 00:24 | 32.72137 | -117.13776 | 1135 ft | 105 kts | 195° |
| 2026-05-05 00:24 | 32.71867 | -117.14446 | 903 ft | 89 kts | 258° |
| 2026-05-05 00:24 | 32.72207 | -117.15110 | 639 ft | 105 kts | 302° |
| 2026-05-05 00:25 | 32.72547 | -117.15824 | 406 ft | 93 kts | 287° |
| 2026-05-05 00:25 | 32.72755 | -117.16527 | 297 ft | 92 kts | 286° |
| 2026-05-05 00:25 | 32.72963 | -117.17262 | 115 ft | 91 kts | 281° |
| 2026-05-05 00:25 | 32.73103 | -117.17924 | 37 ft | 77 kts | 282° |
| 2026-05-05 00:26 | 32.73220 | -117.18406 | 19 ft | 51 kts | 282° |
| 2026-05-05 00:26 | 32.73372 | -117.19006 | 163 ft | 91 kts | 284° |
| 2026-05-05 00:26 | 32.73553 | -117.19762 | 444 ft | 96 kts | 280° |
| 2026-05-05 00:26 | 32.73769 | -117.20535 | 789 ft | 96 kts | 287° |
| 2026-05-05 00:27 | 32.74042 | -117.21277 | 1084 ft | 112 kts | 308° |
| 2026-05-05 00:27 | 32.74868 | -117.21519 | 1035 ft | 139 kts | 5° |
| 2026-05-05 00:27 | 32.75783 | -117.21179 | 1180 ft | 136 kts | 25° |
| 2026-05-05 00:27 | 32.75908 | -117.20198 | 1328 ft | 139 kts | 112° |
| 2026-05-05 00:28 | 32.75507 | -117.19145 | 1199 ft | 129 kts | 119° |
| 2026-05-05 00:28 | 32.75116 | -117.18298 | 1093 ft | 107 kts | 124° |
| 2026-05-05 00:28 | 32.75184 | -117.17491 | 1026 ft | 106 kts | 49° |
| 2026-05-05 00:28 | 32.75802 | -117.17226 | 922 ft | 98 kts | 337° |
| 2026-05-05 00:29 | 32.76114 | -117.17878 | 1062 ft | 103 kts | 260° |
| 2026-05-05 00:29 | 32.75567 | -117.18446 | 1042 ft | 126 kts | 191° |
| 2026-05-05 00:29 | 32.74852 | -117.18038 | 979 ft | 106 kts | 134° |
| 2026-05-05 00:29 | 32.74460 | -117.17336 | 879 ft | 103 kts | 131° |
| 2026-05-05 00:30 | 32.74043 | -117.16689 | 1050 ft | 98 kts | 131° |
| 2026-05-05 00:30 | 32.73640 | -117.15969 | 965 ft | 108 kts | 128° |
| 2026-05-05 00:30 | 32.73226 | -117.15269 | 956 ft | 107 kts | 127° |
| 2026-05-05 00:30 | 32.73010 | -117.14530 | 1067 ft | 98 kts | 95° |
| 2026-05-05 00:31 | 32.72979 | -117.13679 | 999 ft | 106 kts | 91° |
| 2026-05-05 00:31 | 32.72982 | -117.12811 | 1040 ft | 107 kts | 90° |
| 2026-05-05 00:31 | 32.72676 | -117.12133 | 1033 ft | 100 kts | 181° |
| 2026-05-05 00:31 | 32.72336 | -117.12694 | 968 ft | 91 kts | 247° |
| 2026-05-05 00:32 | 32.72150 | -117.13409 | 818 ft | 98 kts | 264° |
| 2026-05-05 00:32 | 32.72229 | -117.14214 | 664 ft | 92 kts | 284° |
| 2026-05-05 00:32 | 32.72411 | -117.14963 | 547 ft | 101 kts | 282° |
| 2026-05-05 00:32 | 32.72582 | -117.15724 | 404 ft | 91 kts | 281° |
| 2026-05-05 00:33 | 32.72588 | -117.16403 | 383 ft | 89 kts | 290° |
| 2026-05-05 00:33 | 32.72913 | -117.17135 | 280 ft | 90 kts | 285° |
| 2026-05-05 00:33 | 32.73285 | -117.17624 | 720 ft | 96 kts | 352° |
| 2026-05-05 00:33 | 32.73869 | -117.17079 | 900 ft | 127 kts | 72° |
| 2026-05-05 00:34 | 32.73625 | -117.16135 | 898 ft | 111 kts | 121° |
| 2026-05-05 00:34 | 32.73349 | -117.15359 | 841 ft | 98 kts | 112° |
| 2026-05-05 00:34 | 32.73119 | -117.14583 | 787 ft | 101 kts | 112° |
| 2026-05-05 00:34 | 32.72851 | -117.13757 | 927 ft | 110 kts | 102° |
| 2026-05-05 00:35 | 32.72514 | -117.12893 | 1089 ft | 116 kts | 128° |
| 2026-05-05 00:35 | 32.72038 | -117.12124 | 994 ft | 112 kts | 132° |
| 2026-05-05 00:35 | 32.71530 | -117.11555 | 984 ft | 93 kts | 163° |
| 2026-05-05 00:35 | 32.70958 | -117.11036 | 959 ft | 104 kts | 143° |
| 2026-05-05 00:36 | 32.70464 | -117.10481 | 955 ft | 102 kts | 150° |
| 2026-05-05 00:36 | 32.69823 | -117.10053 | 931 ft | 112 kts | 163° |
| 2026-05-05 00:36 | 32.69379 | -117.09806 | 889 ft | 99 kts | 165° |